KCVW

National Data Buoy Center

Cameron, Louisiana, USA
METAR KCVW 170240Z AUTO 01010KT 2SM BR OVC003 16/16 A3009 RMK A01
Observed Flight Rules
Oct-17 @ 02:40 UTC (30 minutes ago) Instrument Flight Rules
Wind Visibility Clouds Conditions
10° at 10 knots 2 miles
  • Overcast at 300' AGL
  • Mist
Temperatures Readings
Current 16°C / 61°F
Dewpoint 16°C / 61°F
Humidity 100%
Altimeter 30.09" Hg
Pressure 1019 hPa
Elevation 1
METAR KCVW 170240Z AUTO 01010KT 2SM BR OVC003 16/16 A3009 RMK A01
Observed Flight Rules
Oct-17 @ 02:40 UTC
(30 minutes ago)
LIFR
Wind Visibility
10° at 10 knots 2 miles
Clouds
  • Overcast at 300' AGL
Conditions
  • Mist
Temperature Dewpoint
16°C / 61°F 16°C / 61°F
Humidity Altimeter Pressure
100% 30.09" Hg 1019 hPa